createdAt,value
2022-11-21T00:00:04.786Z,24.90
2022-11-21T00:02:31.062Z,28.38
2022-11-21T00:04:57.969Z,28.00
2022-11-21T00:07:24.268Z,29.45
2022-11-21T00:09:50.630Z,29.83
2022-11-21T00:12:16.929Z,32.20
2022-11-21T00:14:43.205Z,33.55
2022-11-21T00:17:09.841Z,30.05
2022-11-21T00:19:36.136Z,32.40
2022-11-21T00:22:02.417Z,30.20
2022-11-21T00:24:28.985Z,38.22
2022-11-21T00:26:55.509Z,36.00
2022-11-21T00:29:21.798Z,29.77
2022-11-21T00:31:48.063Z,31.55
2022-11-21T00:34:15.789Z,33.40
2022-11-21T00:36:42.278Z,32.90
2022-11-21T00:39:08.585Z,30.92
2022-11-21T00:41:34.884Z,29.13
2022-11-21T00:44:01.156Z,30.58
2022-11-21T00:46:27.468Z,27.92
2022-11-21T00:48:53.760Z,23.75
2022-11-21T00:51:20.175Z,22.52
2022-11-21T00:53:46.578Z,25.08
2022-11-21T00:56:13.048Z,23.58
2022-11-21T00:58:39.320Z,22.92
2022-11-21T01:01:07.559Z,23.75
2022-11-21T01:03:34.929Z,23.77
2022-11-21T01:06:02.446Z,23.48
2022-11-21T01:08:28.906Z,24.00
2022-11-21T01:10:55.180Z,27.27
2022-11-21T01:13:21.456Z,25.75
2022-11-21T01:15:47.729Z,23.40
2022-11-21T01:18:14.001Z,22.73
2022-11-21T01:20:40.499Z,25.90
2022-11-21T01:23:06.778Z,24.45
2022-11-21T01:25:36.291Z,22.33
2022-11-21T01:28:02.582Z,25.73
2022-11-21T01:30:28.873Z,26.85
2022-11-21T01:32:55.152Z,29.73
2022-11-21T01:35:21.445Z,35.30
2022-11-21T01:37:48.355Z,33.67
2022-11-21T01:40:14.949Z,30.52
2022-11-21T01:43:13.421Z,32.38
2022-11-21T01:45:48.830Z,35.08
2022-11-21T01:48:15.390Z,36.70
2022-11-21T01:50:41.721Z,30.13
2022-11-21T01:53:08.016Z,30.35
2022-11-21T01:55:34.750Z,29.10
2022-11-21T01:58:01.410Z,32.25
2022-11-21T02:00:28.959Z,32.53
2022-11-21T02:02:59.320Z,36.67
2022-11-21T02:05:27.999Z,33.33
2022-11-21T02:07:56.706Z,26.63
2022-11-21T02:10:23.225Z,33.80
2022-11-21T02:12:50.684Z,33.17
2022-11-21T02:15:17.722Z,29.02
2022-11-21T02:17:43.994Z,31.60
2022-11-21T02:20:12.290Z,30.15
2022-11-21T02:22:46.738Z,26.83
2022-11-21T02:25:15.305Z,23.55
2022-11-21T02:27:41.967Z,21.80
2022-11-21T02:30:09.367Z,21.02
2022-11-21T02:32:37.542Z,19.58
2022-11-21T02:35:04.430Z,24.38
2022-11-21T02:37:30.916Z,17.00
2022-11-21T02:39:58.825Z,17.63
2022-11-21T02:42:28.136Z,17.92
2022-11-21T02:45:14.672Z,15.05
2022-11-21T02:47:41.717Z,14.27
2022-11-21T02:50:15.351Z,15.40
2022-11-21T02:52:41.889Z,13.45
2022-11-21T02:55:08.908Z,16.88
2022-11-21T02:57:35.172Z,16.42
2022-11-21T03:00:01.479Z,13.63
2022-11-21T03:02:27.746Z,20.73
2022-11-21T03:04:54.037Z,16.17
2022-11-21T03:07:20.364Z,15.98
2022-11-21T03:09:46.684Z,18.38
2022-11-21T03:12:12.947Z,16.00
2022-11-21T03:14:39.270Z,17.83
2022-11-21T03:17:05.557Z,16.52
2022-11-21T03:19:31.859Z,17.25
2022-11-21T03:21:58.197Z,18.50
2022-11-21T03:24:24.610Z,18.52
2022-11-21T03:26:51.023Z,17.75
2022-11-21T03:29:17.320Z,20.92
2022-11-21T03:31:43.612Z,16.77
2022-11-21T03:34:10.012Z,14.95
2022-11-21T03:36:36.349Z,20.83
2022-11-21T03:39:03.161Z,15.75
2022-11-21T03:41:29.461Z,20.42
2022-11-21T03:43:59.485Z,18.23
2022-11-21T03:46:25.981Z,15.68
2022-11-21T03:48:52.326Z,14.38
2022-11-21T03:51:19.036Z,15.50
2022-11-21T03:53:45.338Z,16.95
2022-11-21T03:56:12.084Z,17.92
2022-11-21T03:58:38.378Z,16.02
2022-11-21T04:01:05.462Z,18.13
2022-11-21T04:03:32.218Z,20.75
2022-11-21T04:05:58.588Z,17.55
2022-11-21T04:08:25.089Z,15.70
2022-11-21T04:10:52.340Z,14.45
2022-11-21T04:13:18.692Z,18.90
2022-11-21T04:15:45.188Z,16.98
2022-11-21T04:18:12.000Z,18.52
2022-11-21T04:20:38.577Z,17.30
2022-11-21T04:23:04.877Z,16.75
2022-11-21T04:25:31.266Z,18.85
2022-11-21T04:28:00.797Z,18.60
2022-11-21T04:30:27.465Z,20.73
2022-11-21T04:32:54.308Z,17.88
2022-11-21T04:35:21.314Z,19.50
2022-11-21T04:37:47.627Z,17.35
2022-11-21T04:40:14.412Z,18.98
2022-11-21T04:42:47.868Z,19.63
2022-11-21T04:45:14.861Z,22.02
2022-11-21T04:47:42.216Z,20.60
2022-11-21T04:50:09.495Z,17.83
2022-11-21T04:52:35.778Z,19.27
2022-11-21T04:55:02.068Z,18.63
2022-11-21T04:57:29.219Z,20.00
2022-11-21T04:59:55.587Z,25.00
2022-11-21T05:02:22.323Z,19.02
2022-11-21T05:04:48.650Z,21.58
2022-11-21T05:07:15.344Z,16.25
2022-11-21T05:09:41.632Z,18.05
2022-11-21T05:12:29.533Z,18.83
2022-11-21T05:14:56.275Z,22.20
2022-11-21T05:17:22.816Z,18.98
2022-11-21T05:19:49.104Z,19.58
2022-11-21T05:22:15.380Z,17.17
2022-11-21T05:24:41.654Z,26.73
2022-11-21T05:27:07.934Z,21.63
2022-11-21T05:29:34.194Z,18.23
2022-11-21T05:32:00.488Z,17.42
2022-11-21T05:34:27.066Z,19.73
2022-11-21T05:36:58.140Z,20.95
2022-11-21T05:39:24.899Z,17.88
2022-11-21T05:41:51.657Z,22.15
2022-11-21T05:44:18.284Z,24.98
2022-11-21T05:46:44.578Z,19.63
2022-11-21T05:49:11.318Z,18.02
2022-11-21T05:51:37.654Z,17.83
2022-11-21T05:54:04.360Z,21.48
2022-11-21T05:56:30.934Z,19.75
2022-11-21T05:58:58.161Z,22.40
2022-11-21T06:01:43.837Z,16.65
2022-11-21T06:04:10.569Z,16.88
2022-11-21T06:06:37.169Z,17.83
2022-11-21T06:09:03.970Z,16.88
2022-11-21T06:11:30.257Z,17.08
2022-11-21T06:13:56.693Z,14.95
2022-11-21T06:16:23.053Z,16.48
2022-11-21T06:18:57.930Z,19.70
2022-11-21T06:21:26.192Z,14.13
2022-11-21T06:23:53.688Z,18.20
2022-11-21T06:26:21.179Z,18.98
2022-11-21T06:28:47.956Z,18.55
2022-11-21T06:31:18.925Z,20.98
2022-11-21T06:33:45.236Z,18.85
2022-11-21T06:36:12.814Z,21.08
2022-11-21T06:38:39.742Z,21.25
2022-11-21T06:41:06.796Z,19.95
2022-11-21T06:43:33.079Z,19.30
2022-11-21T06:46:02.179Z,20.85
2022-11-21T06:48:28.637Z,18.58
2022-11-21T06:50:54.933Z,18.23
2022-11-21T06:53:21.290Z,20.10
2022-11-21T06:55:47.564Z,21.70
2022-11-21T06:58:13.833Z,21.27
2022-11-21T07:00:40.165Z,19.20
2022-11-21T07:03:06.411Z,19.23
2022-11-21T07:05:32.961Z,22.13
2022-11-21T07:07:59.984Z,23.17
2022-11-21T07:10:26.510Z,25.20
2022-11-21T07:13:14.763Z,28.92
2022-11-21T07:15:41.031Z,22.77
2022-11-21T07:18:07.322Z,20.38
2022-11-21T07:20:33.792Z,18.73
2022-11-21T07:23:01.072Z,20.65
2022-11-21T07:25:30.268Z,22.35
2022-11-21T07:27:59.750Z,25.70
2022-11-21T07:30:26.114Z,23.92
2022-11-21T07:32:59.211Z,24.67
2022-11-21T07:35:25.786Z,23.65
2022-11-21T07:37:52.456Z,22.63
2022-11-21T07:40:21.782Z,21.60
2022-11-21T07:42:48.121Z,23.33
2022-11-21T07:45:14.753Z,25.92
2022-11-21T07:47:41.306Z,23.95
2022-11-21T07:50:08.987Z,24.52
2022-11-21T07:52:38.347Z,21.13
2022-11-21T07:55:05.705Z,19.70
2022-11-21T07:57:32.696Z,18.75
2022-11-21T07:59:58.949Z,30.88
2022-11-21T08:02:26.349Z,13.77
2022-11-21T08:04:52.641Z,22.20
2022-11-21T08:07:20.829Z,14.05
2022-11-21T08:09:47.565Z,13.07
2022-11-21T08:12:14.230Z,16.70
2022-11-21T08:14:40.818Z,17.27
2022-11-21T08:17:07.701Z,17.92
2022-11-21T08:19:34.393Z,14.75
2022-11-21T08:22:00.930Z,17.33
2022-11-21T08:24:27.272Z,20.63
2022-11-21T08:26:53.613Z,15.52
2022-11-21T08:29:19.894Z,13.77
2022-11-21T08:31:46.218Z,10.52
2022-11-21T08:34:14.640Z,13.20
2022-11-21T08:36:41.121Z,11.65
2022-11-21T08:39:07.395Z,12.05
2022-11-21T08:41:52.256Z,13.30
2022-11-21T08:44:18.535Z,14.27
2022-11-21T08:46:44.818Z,12.25
2022-11-21T08:49:11.146Z,14.65
2022-11-21T08:51:37.453Z,12.55
2022-11-21T08:54:03.806Z,12.02
2022-11-21T08:56:30.757Z,10.25
2022-11-21T08:58:57.068Z,11.00
2022-11-21T09:01:23.687Z,15.00
2022-11-21T09:03:50.066Z,11.52
2022-11-21T09:06:16.465Z,11.90
2022-11-21T09:08:42.748Z,9.63
2022-11-21T09:11:09.836Z,10.75
2022-11-21T09:13:36.562Z,10.80
2022-11-21T09:16:22.158Z,14.05
2022-11-21T09:18:48.659Z,11.75
2022-11-21T09:21:15.886Z,10.35
2022-11-21T09:23:42.317Z,12.65
2022-11-21T09:26:08.661Z,15.02
2022-11-21T09:28:35.936Z,14.05
2022-11-21T09:31:02.918Z,14.15
2022-11-21T09:33:29.231Z,13.25
2022-11-21T09:35:57.909Z,11.57
2022-11-21T09:38:24.611Z,10.90
2022-11-21T09:40:50.918Z,13.65
2022-11-21T09:43:31.423Z,13.05
2022-11-21T09:48:27.222Z,13.40
2022-11-21T09:50:59.747Z,11.27
2022-11-21T09:53:27.952Z,15.40
2022-11-21T09:55:59.835Z,13.40
2022-11-21T09:58:47.558Z,11.68
2022-11-21T10:01:14.496Z,11.18
2022-11-21T10:03:47.269Z,11.80
2022-11-21T10:06:19.255Z,16.08
2022-11-21T10:08:45.510Z,13.57
2022-11-21T10:11:58.976Z,20.83
2022-11-21T10:14:43.877Z,11.38
2022-11-21T10:17:10.151Z,22.38
2022-11-21T10:19:48.856Z,14.27
2022-11-21T10:22:15.129Z,13.70
2022-11-21T10:24:50.435Z,19.02
2022-11-21T10:27:25.945Z,12.05
2022-11-21T10:30:18.854Z,13.05
2022-11-21T10:33:04.566Z,13.23
2022-11-21T10:35:41.002Z,9.20
2022-11-21T10:38:23.665Z,13.35
2022-11-21T10:41:03.824Z,10.55
2022-11-21T10:43:58.113Z,8.38
2022-11-21T10:46:24.402Z,10.07
2022-11-21T10:48:56.451Z,11.55
2022-11-21T10:51:27.562Z,10.20
2022-11-21T10:54:22.857Z,9.73
2022-11-21T10:56:49.741Z,10.68
2022-11-21T10:59:27.128Z,13.50
2022-11-21T11:02:19.364Z,10.80
2022-11-21T11:04:50.818Z,11.90
2022-11-21T11:07:23.416Z,11.68
2022-11-21T11:09:51.044Z,10.73
2022-11-21T11:12:25.654Z,10.93
2022-11-21T11:14:52.992Z,8.45
2022-11-21T11:17:26.362Z,13.10
2022-11-21T11:20:00.123Z,10.93
2022-11-21T11:22:27.768Z,9.20
2022-11-21T11:24:57.635Z,12.93
2022-11-21T11:27:27.734Z,12.52
2022-11-21T11:29:54.102Z,8.90
2022-11-21T11:32:21.843Z,9.95
2022-11-21T11:34:51.081Z,13.73
2022-11-21T11:37:21.033Z,9.48
2022-11-21T11:40:13.568Z,9.75
2022-11-21T11:43:01.501Z,9.32
2022-11-21T11:45:49.371Z,8.63
2022-11-21T11:48:16.653Z,8.95
2022-11-21T11:50:53.790Z,10.70
2022-11-21T11:53:21.326Z,9.85
2022-11-21T11:55:54.253Z,9.32
2022-11-21T11:58:24.194Z,10.10
2022-11-21T12:01:03.336Z,12.77
2022-11-21T12:03:45.258Z,9.30
2022-11-21T12:06:31.884Z,10.48
2022-11-21T12:09:15.754Z,10.73
2022-11-21T12:12:06.730Z,11.55
2022-11-21T12:15:01.059Z,11.05
2022-11-21T12:17:31.139Z,9.27
2022-11-21T12:19:57.936Z,12.30
2022-11-21T12:22:24.232Z,8.77
2022-11-21T12:24:50.549Z,9.10
2022-11-21T12:27:23.030Z,10.40
2022-11-21T12:29:56.874Z,10.93
2022-11-21T12:32:32.577Z,12.43
2022-11-21T12:35:17.321Z,10.13
2022-11-21T12:37:47.205Z,12.35
2022-11-21T12:40:16.543Z,11.82
2022-11-21T12:42:50.809Z,10.88
2022-11-21T12:45:24.409Z,13.25
2022-11-21T12:48:43.205Z,14.25
2022-11-21T12:51:43.370Z,12.05
2022-11-21T12:54:33.387Z,14.98
2022-11-21T12:56:59.662Z,16.33
2022-11-21T12:59:26.044Z,12.93
2022-11-21T13:01:55.208Z,13.50
2022-11-21T13:04:26.618Z,13.13
2022-11-21T13:06:54.048Z,13.65
2022-11-21T13:09:21.344Z,15.43
2022-11-21T13:11:58.932Z,16.00
2022-11-21T13:14:28.689Z,13.90
2022-11-21T13:17:02.149Z,15.88
2022-11-21T13:19:36.455Z,14.77
2022-11-21T13:22:02.733Z,13.70
2022-11-21T13:24:44.206Z,15.55
2022-11-21T13:27:32.180Z,18.15
2022-11-21T13:30:12.126Z,12.82
2022-11-21T13:32:50.796Z,17.33
2022-11-21T13:35:20.251Z,13.77
2022-11-21T13:37:49.670Z,16.80
2022-11-21T13:40:28.407Z,15.07
2022-11-21T13:43:33.081Z,14.95
2022-11-21T13:45:59.089Z,16.17
2022-11-21T13:48:28.121Z,17.08
2022-11-21T13:51:03.317Z,15.73
2022-11-21T13:53:42.050Z,17.67
2022-11-21T13:56:31.746Z,16.95
2022-11-21T13:59:18.241Z,16.40
2022-11-21T14:01:48.530Z,14.38
2022-11-21T14:06:44.767Z,15.15
2022-11-21T14:09:22.585Z,16.27
2022-11-21T14:11:50.292Z,19.10
2022-11-21T14:14:28.944Z,16.85
2022-11-21T14:17:01.411Z,16.30
2022-11-21T14:19:28.224Z,15.60
2022-11-21T14:21:55.404Z,18.00
2022-11-21T14:24:21.846Z,15.80
2022-11-21T14:26:49.669Z,19.08
2022-11-21T14:29:16.674Z,16.80
2022-11-21T14:31:47.201Z,15.88
2022-11-21T14:34:23.320Z,13.93
2022-11-21T14:36:49.674Z,14.63
2022-11-21T14:42:03.929Z,16.85
2022-11-21T14:44:30.496Z,16.90
2022-11-21T14:47:13.925Z,19.17
2022-11-21T14:49:47.956Z,19.73
2022-11-21T14:52:18.527Z,18.58
2022-11-21T14:57:34.526Z,19.73
2022-11-21T15:00:01.047Z,19.70
2022-11-21T15:02:29.055Z,18.60
2022-11-21T15:05:00.437Z,18.60
2022-11-21T15:07:31.767Z,19.75
2022-11-21T15:10:28.821Z,19.83
2022-11-21T15:12:48.254Z,20.30
2022-11-21T15:15:33.276Z,19.52
2022-11-21T15:20:50.909Z,19.08
2022-11-21T15:23:29.552Z,21.17
2022-11-21T15:26:00.706Z,19.35
2022-11-21T15:28:27.788Z,17.90
2022-11-21T15:31:12.858Z,24.23
2022-11-21T15:37:00.856Z,20.13
2022-11-21T15:39:27.198Z,21.65
2022-11-21T15:41:53.483Z,23.55
2022-11-21T15:44:21.201Z,21.50
2022-11-21T15:46:50.565Z,19.85
2022-11-21T15:49:33.852Z,23.55
2022-11-21T15:54:47.388Z,24.55
2022-11-21T15:57:11.176Z,23.42
2022-11-21T15:57:16.695Z,21.73
2022-11-21T15:59:43.437Z,28.85
2022-11-21T16:02:11.949Z,23.67
2022-11-21T16:04:38.239Z,26.92
2022-11-21T16:07:07.653Z,31.23
2022-11-21T16:09:34.069Z,24.00
2022-11-21T16:12:00.321Z,31.95
2022-11-21T16:14:26.703Z,25.88
2022-11-21T16:16:52.974Z,31.75
2022-11-21T16:19:19.257Z,34.15
2022-11-21T16:21:45.528Z,36.90
2022-11-21T16:24:11.810Z,38.92
2022-11-21T16:26:38.170Z,30.02
2022-11-21T16:29:05.665Z,30.95
2022-11-21T16:31:32.229Z,38.70
2022-11-21T16:33:59.302Z,32.55
2022-11-21T16:36:27.185Z,35.53
2022-11-21T16:38:53.760Z,37.60
2022-11-21T16:41:21.376Z,37.88
2022-11-21T16:43:56.826Z,47.63
2022-11-21T16:46:24.203Z,41.42
2022-11-21T16:48:57.612Z,40.42
2022-11-21T16:51:23.873Z,33.33
2022-11-21T16:53:50.149Z,43.17
2022-11-21T16:56:16.510Z,36.38
2022-11-21T16:58:43.169Z,34.05
2022-11-21T17:01:29.826Z,43.20
2022-11-21T17:03:56.184Z,36.80
2022-11-21T17:06:28.252Z,36.22
2022-11-21T17:08:54.544Z,40.08
2022-11-21T17:11:22.264Z,39.58
2022-11-21T17:13:49.329Z,32.67
2022-11-21T17:16:16.627Z,33.45
2022-11-21T17:18:43.008Z,37.42
2022-11-21T17:21:10.431Z,37.40
2022-11-21T17:23:37.904Z,33.30
2022-11-21T17:26:08.452Z,34.15
2022-11-21T17:31:05.326Z,42.10
2022-11-21T17:33:31.604Z,37.15
2022-11-21T17:35:57.867Z,33.15
2022-11-21T17:38:24.522Z,36.33
2022-11-21T17:41:11.076Z,34.28
2022-11-21T17:43:37.565Z,31.38
2022-11-21T17:46:10.182Z,37.13
2022-11-21T17:48:37.118Z,36.58
2022-11-21T17:51:04.844Z,38.15
2022-11-21T17:53:32.041Z,34.42
2022-11-21T17:55:59.732Z,27.25
2022-11-21T17:58:29.337Z,35.22
2022-11-21T18:00:56.424Z,37.37
2022-11-21T18:03:23.058Z,40.85
2022-11-21T18:05:51.763Z,35.17
2022-11-21T18:08:19.637Z,29.88
2022-11-21T18:10:51.823Z,29.05
2022-11-21T18:13:18.083Z,33.17
2022-11-21T18:15:44.386Z,26.60
2022-11-21T18:18:10.692Z,28.65
2022-11-21T18:20:36.964Z,39.00
2022-11-21T18:23:03.258Z,36.83
2022-11-21T18:25:29.533Z,29.15
2022-11-21T18:27:56.055Z,38.53
2022-11-21T18:30:22.338Z,42.00
2022-11-21T18:32:49.185Z,39.50
2022-11-21T18:35:15.551Z,40.63
2022-11-21T18:37:42.285Z,37.58
2022-11-21T18:40:09.034Z,37.75
2022-11-21T18:42:35.296Z,41.40
2022-11-21T18:45:01.648Z,33.03
2022-11-21T18:47:27.949Z,43.55
2022-11-21T18:49:54.234Z,29.88
2022-11-21T18:52:20.500Z,40.17
2022-11-21T18:54:47.036Z,44.25
2022-11-21T18:57:13.382Z,39.22
2022-11-21T18:59:39.701Z,53.65
2022-11-21T19:02:06.384Z,44.03
2022-11-21T19:04:32.664Z,43.88
2022-11-21T19:06:58.944Z,61.95
2022-11-21T19:09:31.015Z,43.22
2022-11-21T19:11:58.678Z,45.95
2022-11-21T19:14:25.045Z,51.13
2022-11-21T19:16:51.317Z,43.42
2022-11-21T19:19:35.015Z,60.22
2022-11-21T19:22:01.858Z,44.78
2022-11-21T19:24:28.147Z,56.30
2022-11-21T19:26:54.412Z,51.67
2022-11-21T19:29:20.793Z,55.22
2022-11-21T19:31:47.092Z,48.58
2022-11-21T19:34:13.935Z,49.30
2022-11-21T19:36:40.529Z,38.58
2022-11-21T19:39:07.193Z,43.15
2022-11-21T19:41:33.471Z,36.65
2022-11-21T19:44:00.484Z,39.38
2022-11-21T19:46:27.741Z,35.25
2022-11-21T19:48:54.856Z,32.90
2022-11-21T19:51:22.051Z,37.00
2022-11-21T19:53:48.659Z,35.72
2022-11-21T19:56:18.960Z,41.03
2022-11-21T19:58:45.691Z,36.78
2022-11-21T20:01:19.888Z,33.05
2022-11-21T20:03:47.352Z,26.58
2022-11-21T20:06:30.725Z,33.17
2022-11-21T20:09:01.436Z,33.25
2022-11-21T20:11:29.567Z,31.40
2022-11-21T20:13:56.209Z,34.08
2022-11-21T20:16:25.244Z,32.88
2022-11-21T20:18:51.998Z,37.78
2022-11-21T20:21:18.906Z,25.83
2022-11-21T20:23:48.694Z,38.13
2022-11-21T20:26:15.861Z,31.08
2022-11-21T20:28:42.252Z,34.03
2022-11-21T20:31:09.945Z,30.85
2022-11-21T20:33:43.191Z,29.02
2022-11-21T20:36:18.642Z,31.00
2022-11-21T20:38:52.605Z,27.40
2022-11-21T20:41:19.504Z,28.83
2022-11-21T20:44:27.353Z,32.40
2022-11-21T20:46:33.302Z,35.88
2022-11-21T20:48:59.856Z,29.17
2022-11-21T20:54:12.655Z,35.35
2022-11-21T20:56:43.742Z,31.80
2022-11-21T20:59:10.582Z,31.00
2022-11-21T21:01:36.945Z,34.50
2022-11-21T21:04:03.333Z,32.63
2022-11-21T21:06:29.673Z,35.88
2022-11-21T21:08:55.962Z,34.00
2022-11-21T21:11:50.389Z,31.00
2022-11-21T21:14:09.484Z,30.67
2022-11-21T21:16:36.187Z,30.58
2022-11-21T21:19:02.524Z,34.85
2022-11-21T21:21:30.697Z,26.92
2022-11-21T21:24:00.896Z,34.38
2022-11-21T21:26:28.852Z,29.38
2022-11-21T21:28:55.734Z,29.17
2022-11-21T21:31:22.389Z,29.20
2022-11-21T21:33:49.108Z,27.63
2022-11-21T21:36:20.253Z,26.00
2022-11-21T21:38:50.075Z,25.10
2022-11-21T21:41:16.355Z,25.35
2022-11-21T21:43:42.633Z,29.30
2022-11-21T21:46:10.813Z,24.60
2022-11-21T21:48:37.842Z,24.25
2022-11-21T21:51:07.932Z,27.02
2022-11-21T21:53:37.608Z,29.92
2022-11-21T21:56:04.662Z,25.27
2022-11-21T21:58:32.951Z,26.52
2022-11-21T22:01:06.369Z,23.23
2022-11-21T22:03:33.016Z,22.50
2022-11-21T22:06:02.460Z,26.95
2022-11-21T22:08:30.263Z,22.05
2022-11-21T22:11:03.904Z,21.88
2022-11-21T22:13:30.453Z,20.70
2022-11-21T22:15:57.323Z,20.40
2022-11-21T22:18:23.710Z,22.95
2022-11-21T22:20:50.279Z,19.50
2022-11-21T22:23:16.584Z,21.23
2022-11-21T22:25:42.964Z,22.05
2022-11-21T22:28:09.813Z,20.65
2022-11-21T22:30:36.107Z,19.55
2022-11-21T22:33:02.381Z,19.63
2022-11-21T22:35:31.174Z,24.60
2022-11-21T22:37:58.421Z,18.40
2022-11-21T22:40:24.825Z,22.10
2022-11-21T22:42:53.872Z,20.65
2022-11-21T22:45:20.162Z,20.42
2022-11-21T22:47:48.033Z,24.08
2022-11-21T22:50:15.447Z,21.83
2022-11-21T22:52:41.803Z,16.77
2022-11-21T22:55:08.377Z,18.55
2022-11-21T22:57:34.723Z,17.73
2022-11-21T23:00:01.308Z,20.10
2022-11-21T23:02:27.590Z,19.63
2022-11-21T23:04:53.852Z,20.42
2022-11-21T23:07:20.259Z,19.95
2022-11-21T23:09:46.602Z,20.67
2022-11-21T23:12:12.890Z,19.23
2022-11-21T23:14:39.155Z,22.10
2022-11-21T23:17:05.481Z,19.58
2022-11-21T23:19:31.987Z,16.33
2022-11-21T23:21:58.355Z,19.77
2022-11-21T23:24:24.626Z,17.35
2022-11-21T23:26:51.059Z,23.90
2022-11-21T23:29:17.343Z,21.40
2022-11-21T23:31:43.618Z,18.70
2022-11-21T23:34:11.174Z,22.98
2022-11-21T23:36:37.585Z,23.75
2022-11-21T23:39:04.455Z,22.95
2022-11-21T23:41:30.941Z,21.80
2022-11-21T23:43:57.330Z,22.95
2022-11-21T23:46:23.616Z,23.88
2022-11-21T23:48:50.009Z,22.45
2022-11-21T23:51:16.325Z,25.52
2022-11-21T23:53:42.619Z,25.92
2022-11-21T23:56:08.918Z,23.48
2022-11-21T23:58:35.192Z,17.70
